sensor_id;sensor_type;location;lat;lon;timestamp;P1;durP1;ratioP1;P2;durP2;ratioP2
18340;SDS011;9296;48.084;16.352;2023-06-10T00:01:40;6.55;;;4.82;;
18340;SDS011;9296;48.084;16.352;2023-06-10T00:04:08;7.75;;;5.10;;
18340;SDS011;9296;48.084;16.352;2023-06-10T00:06:37;5.97;;;5.35;;
18340;SDS011;9296;48.084;16.352;2023-06-10T00:09:04;6.35;;;5.10;;
18340;SDS011;9296;48.084;16.352;2023-06-10T00:11:35;5.53;;;4.93;;
18340;SDS011;9296;48.084;16.352;2023-06-10T00:14:02;6.60;;;5.07;;
18340;SDS011;9296;48.084;16.352;2023-06-10T00:16:29;5.90;;;5.00;;
18340;SDS011;9296;48.084;16.352;2023-06-10T00:18:56;6.30;;;4.97;;
18340;SDS011;9296;48.084;16.352;2023-06-10T00:21:25;9.98;;;4.93;;
18340;SDS011;9296;48.084;16.352;2023-06-10T00:23:54;6.93;;;5.00;;
18340;SDS011;9296;48.084;16.352;2023-06-10T00:26:21;5.55;;;4.80;;
18340;SDS011;9296;48.084;16.352;2023-06-10T00:28:48;6.50;;;4.55;;
18340;SDS011;9296;48.084;16.352;2023-06-10T00:31:17;5.75;;;4.95;;
18340;SDS011;9296;48.084;16.352;2023-06-10T00:33:44;6.88;;;4.85;;
18340;SDS011;9296;48.084;16.352;2023-06-10T00:36:11;5.53;;;4.88;;
18340;SDS011;9296;48.084;16.352;2023-06-10T00:38:39;6.47;;;4.93;;
18340;SDS011;9296;48.084;16.352;2023-06-10T00:41:08;9.13;;;5.65;;
18340;SDS011;9296;48.084;16.352;2023-06-10T00:46:38;7.68;;;5.40;;
18340;SDS011;9296;48.084;16.352;2023-06-10T00:49:05;6.25;;;4.80;;
18340;SDS011;9296;48.084;16.352;2023-06-10T00:51:33;7.15;;;5.22;;
18340;SDS011;9296;48.084;16.352;2023-06-10T00:54:01;6.95;;;5.18;;
18340;SDS011;9296;48.084;16.352;2023-06-10T00:56:30;6.68;;;5.10;;
18340;SDS011;9296;48.084;16.352;2023-06-10T00:58:57;6.63;;;4.97;;
18340;SDS011;9296;48.084;16.352;2023-06-10T01:01:25;8.10;;;4.97;;
18340;SDS011;9296;48.084;16.352;2023-06-10T01:03:52;7.18;;;5.40;;
18340;SDS011;9296;48.084;16.352;2023-06-10T01:06:23;9.57;;;5.47;;
18340;SDS011;9296;48.084;16.352;2023-06-10T01:08:55;8.63;;;5.60;;
18340;SDS011;9296;48.084;16.352;2023-06-10T01:11:25;6.43;;;5.32;;
18340;SDS011;9296;48.084;16.352;2023-06-10T01:13:56;7.68;;;5.05;;
18340;SDS011;9296;48.084;16.352;2023-06-10T01:16:24;6.35;;;4.95;;
18340;SDS011;9296;48.084;16.352;2023-06-10T01:18:51;6.78;;;5.15;;
18340;SDS011;9296;48.084;16.352;2023-06-10T01:21:21;6.70;;;5.10;;
18340;SDS011;9296;48.084;16.352;2023-06-10T01:23:49;6.40;;;5.47;;
18340;SDS011;9296;48.084;16.352;2023-06-10T01:26:16;6.15;;;5.40;;
18340;SDS011;9296;48.084;16.352;2023-06-10T01:28:47;6.25;;;4.88;;
18340;SDS011;9296;48.084;16.352;2023-06-10T01:31:16;5.13;;;4.45;;
18340;SDS011;9296;48.084;16.352;2023-06-10T01:33:47;6.07;;;4.97;;
18340;SDS011;9296;48.084;16.352;2023-06-10T01:36:15;6.75;;;5.45;;
18340;SDS011;9296;48.084;16.352;2023-06-10T01:38:45;6.25;;;4.97;;
18340;SDS011;9296;48.084;16.352;2023-06-10T01:41:13;6.13;;;4.75;;
18340;SDS011;9296;48.084;16.352;2023-06-10T01:43:40;7.25;;;4.78;;
18340;SDS011;9296;48.084;16.352;2023-06-10T01:46:09;7.07;;;5.07;;
18340;SDS011;9296;48.084;16.352;2023-06-10T01:48:37;5.93;;;4.80;;
18340;SDS011;9296;48.084;16.352;2023-06-10T01:51:04;6.13;;;5.40;;
18340;SDS011;9296;48.084;16.352;2023-06-10T01:53:31;7.10;;;4.75;;
18340;SDS011;9296;48.084;16.352;2023-06-10T01:56:00;7.03;;;4.97;;
18340;SDS011;9296;48.084;16.352;2023-06-10T02:04:34;6.15;;;4.80;;
18340;SDS011;9296;48.084;16.352;2023-06-10T02:07:02;8.98;;;4.75;;
18340;SDS011;9296;48.084;16.352;2023-06-10T02:09:30;7.47;;;4.60;;
18340;SDS011;9296;48.084;16.352;2023-06-10T02:12:01;7.55;;;5.47;;
18340;SDS011;9296;48.084;16.352;2023-06-10T02:17:32;6.57;;;5.40;;
18340;SDS011;9296;48.084;16.352;2023-06-10T02:19:59;8.43;;;5.78;;
18340;SDS011;9296;48.084;16.352;2023-06-10T02:22:29;8.65;;;5.80;;
18340;SDS011;9296;48.084;16.352;2023-06-10T02:24:56;6.55;;;5.75;;
18340;SDS011;9296;48.084;16.352;2023-06-10T02:27:25;5.18;;;4.63;;
18340;SDS011;9296;48.084;16.352;2023-06-10T02:29:52;8.18;;;5.25;;
18340;SDS011;9296;48.084;16.352;2023-06-10T02:32:19;6.47;;;5.38;;
18340;SDS011;9296;48.084;16.352;2023-06-10T02:34:46;9.10;;;5.90;;
18340;SDS011;9296;48.084;16.352;2023-06-10T02:37:14;6.82;;;5.35;;
18340;SDS011;9296;48.084;16.352;2023-06-10T02:39:41;11.20;;;5.82;;
18340;SDS011;9296;48.084;16.352;2023-06-10T02:42:08;6.53;;;5.80;;
18340;SDS011;9296;48.084;16.352;2023-06-10T02:47:59;7.43;;;6.10;;
18340;SDS011;9296;48.084;16.352;2023-06-10T02:50:26;9.32;;;6.53;;
18340;SDS011;9296;48.084;16.352;2023-06-10T02:52:53;8.32;;;6.65;;
18340;SDS011;9296;48.084;16.352;2023-06-10T02:55:21;8.25;;;6.72;;
18340;SDS011;9296;48.084;16.352;2023-06-10T02:57:51;8.48;;;6.60;;
18340;SDS011;9296;48.084;16.352;2023-06-10T03:00:19;6.53;;;5.55;;
18340;SDS011;9296;48.084;16.352;2023-06-10T03:02:46;8.27;;;6.80;;
18340;SDS011;9296;48.084;16.352;2023-06-10T03:05:15;10.38;;;6.97;;
18340;SDS011;9296;48.084;16.352;2023-06-10T03:07:42;9.57;;;7.10;;
18340;SDS011;9296;48.084;16.352;2023-06-10T03:10:12;8.60;;;7.03;;
18340;SDS011;9296;48.084;16.352;2023-06-10T03:12:39;10.00;;;7.53;;
18340;SDS011;9296;48.084;16.352;2023-06-10T03:18:10;9.60;;;7.95;;
18340;SDS011;9296;48.084;16.352;2023-06-10T03:20:39;12.93;;;7.85;;
18340;SDS011;9296;48.084;16.352;2023-06-10T03:23:06;10.82;;;8.13;;
18340;SDS011;9296;48.084;16.352;2023-06-10T03:25:34;10.55;;;8.68;;
18340;SDS011;9296;48.084;16.352;2023-06-10T03:28:01;10.38;;;8.70;;
18340;SDS011;9296;48.084;16.352;2023-06-10T03:33:32;11.68;;;8.25;;
18340;SDS011;9296;48.084;16.352;2023-06-10T03:36:00;10.80;;;8.63;;
18340;SDS011;9296;48.084;16.352;2023-06-10T03:38:28;11.55;;;8.43;;
18340;SDS011;9296;48.084;16.352;2023-06-10T03:40:55;10.25;;;8.00;;
18340;SDS011;9296;48.084;16.352;2023-06-10T03:43:22;11.77;;;8.48;;
18340;SDS011;9296;48.084;16.352;2023-06-10T03:48:53;10.27;;;8.40;;
18340;SDS011;9296;48.084;16.352;2023-06-10T03:51:22;10.60;;;8.65;;
18340;SDS011;9296;48.084;16.352;2023-06-10T03:53:49;11.65;;;8.93;;
18340;SDS011;9296;48.084;16.352;2023-06-10T03:56:16;11.35;;;8.55;;
18340;SDS011;9296;48.084;16.352;2023-06-10T03:58:44;12.25;;;8.77;;
18340;SDS011;9296;48.084;16.352;2023-06-10T04:04:14;11.68;;;8.43;;
18340;SDS011;9296;48.084;16.352;2023-06-10T04:06:44;11.02;;;8.90;;
18340;SDS011;9296;48.084;16.352;2023-06-10T04:09:11;9.98;;;8.52;;
18340;SDS011;9296;48.084;16.352;2023-06-10T04:11:38;12.00;;;8.98;;
18340;SDS011;9296;48.084;16.352;2023-06-10T04:14:06;11.07;;;9.10;;
18340;SDS011;9296;48.084;16.352;2023-06-10T04:16:33;12.43;;;9.07;;
18340;SDS011;9296;48.084;16.352;2023-06-10T04:19:00;11.40;;;9.10;;
18340;SDS011;9296;48.084;16.352;2023-06-10T04:21:27;11.02;;;8.43;;
18340;SDS011;9296;48.084;16.352;2023-06-10T04:23:56;11.75;;;9.18;;
18340;SDS011;9296;48.084;16.352;2023-06-10T04:26:23;13.68;;;8.93;;
18340;SDS011;9296;48.084;16.352;2023-06-10T04:28:52;12.18;;;10.27;;
18340;SDS011;9296;48.084;16.352;2023-06-10T04:34:23;13.00;;;11.02;;
18340;SDS011;9296;48.084;16.352;2023-06-10T04:36:50;15.40;;;11.07;;
18340;SDS011;9296;48.084;16.352;2023-06-10T04:39:19;13.43;;;10.52;;
18340;SDS011;9296;48.084;16.352;2023-06-10T04:41:46;13.52;;;11.10;;
18340;SDS011;9296;48.084;16.352;2023-06-10T04:44:13;13.15;;;10.55;;
18340;SDS011;9296;48.084;16.352;2023-06-10T04:46:40;12.73;;;10.48;;
18340;SDS011;9296;48.084;16.352;2023-06-10T04:49:08;13.25;;;10.70;;
18340;SDS011;9296;48.084;16.352;2023-06-10T04:51:35;11.85;;;10.40;;
18340;SDS011;9296;48.084;16.352;2023-06-10T04:54:02;12.45;;;10.32;;
18340;SDS011;9296;48.084;16.352;2023-06-10T04:56:31;14.57;;;11.55;;
18340;SDS011;9296;48.084;16.352;2023-06-10T04:58:59;13.18;;;11.02;;
18340;SDS011;9296;48.084;16.352;2023-06-10T05:04:29;17.23;;;11.13;;
18340;SDS011;9296;48.084;16.352;2023-06-10T05:06:56;15.32;;;11.88;;
18340;SDS011;9296;48.084;16.352;2023-06-10T05:09:24;14.68;;;11.50;;
18340;SDS011;9296;48.084;16.352;2023-06-10T05:11:53;16.50;;;11.95;;
18340;SDS011;9296;48.084;16.352;2023-06-10T05:14:21;15.77;;;12.57;;
18340;SDS011;9296;48.084;16.352;2023-06-10T05:16:48;15.13;;;11.98;;
18340;SDS011;9296;48.084;16.352;2023-06-10T05:19:15;15.35;;;12.32;;
18340;SDS011;9296;48.084;16.352;2023-06-10T05:21:43;15.65;;;12.02;;
18340;SDS011;9296;48.084;16.352;2023-06-10T05:24:10;15.07;;;12.02;;
18340;SDS011;9296;48.084;16.352;2023-06-10T05:26:37;13.48;;;11.40;;
18340;SDS011;9296;48.084;16.352;2023-06-10T05:29:06;15.55;;;11.75;;
18340;SDS011;9296;48.084;16.352;2023-06-10T05:34:37;13.93;;;11.80;;
18340;SDS011;9296;48.084;16.352;2023-06-10T05:37:05;14.05;;;12.02;;
18340;SDS011;9296;48.084;16.352;2023-06-10T05:39:32;13.35;;;11.77;;
18340;SDS011;9296;48.084;16.352;2023-06-10T05:42:02;14.50;;;11.32;;
18340;SDS011;9296;48.084;16.352;2023-06-10T05:50:39;15.07;;;11.98;;
18340;SDS011;9296;48.084;16.352;2023-06-10T05:53:09;14.68;;;13.05;;
18340;SDS011;9296;48.084;16.352;2023-06-10T05:55:40;16.20;;;13.40;;
18340;SDS011;9296;48.084;16.352;2023-06-10T05:58:07;18.63;;;14.35;;
18340;SDS011;9296;48.084;16.352;2023-06-10T06:00:34;19.30;;;15.80;;
18340;SDS011;9296;48.084;16.352;2023-06-10T06:03:01;19.48;;;15.70;;
18340;SDS011;9296;48.084;16.352;2023-06-10T06:05:28;18.95;;;14.90;;
18340;SDS011;9296;48.084;16.352;2023-06-10T06:08:01;18.40;;;14.95;;
18340;SDS011;9296;48.084;16.352;2023-06-10T06:10:28;19.85;;;15.30;;
18340;SDS011;9296;48.084;16.352;2023-06-10T06:12:55;20.30;;;15.52;;
18340;SDS011;9296;48.084;16.352;2023-06-10T06:18:26;20.55;;;15.82;;
18340;SDS011;9296;48.084;16.352;2023-06-10T06:20:53;20.10;;;15.45;;
18340;SDS011;9296;48.084;16.352;2023-06-10T06:23:22;20.25;;;15.40;;
18340;SDS011;9296;48.084;16.352;2023-06-10T06:25:49;17.52;;;14.43;;
18340;SDS011;9296;48.084;16.352;2023-06-10T06:28:16;19.95;;;15.20;;
18340;SDS011;9296;48.084;16.352;2023-06-10T06:34:01;17.95;;;14.93;;
18340;SDS011;9296;48.084;16.352;2023-06-10T06:36:28;20.65;;;15.10;;
18340;SDS011;9296;48.084;16.352;2023-06-10T06:38:57;21.17;;;15.07;;
18340;SDS011;9296;48.084;16.352;2023-06-10T06:41:25;19.30;;;15.15;;
18340;SDS011;9296;48.084;16.352;2023-06-10T06:43:53;19.83;;;15.68;;
18340;SDS011;9296;48.084;16.352;2023-06-10T06:49:24;19.48;;;15.00;;
18340;SDS011;9296;48.084;16.352;2023-06-10T06:51:51;19.80;;;15.10;;
18340;SDS011;9296;48.084;16.352;2023-06-10T06:54:19;21.33;;;15.38;;
18340;SDS011;9296;48.084;16.352;2023-06-10T06:56:46;22.77;;;15.70;;
18340;SDS011;9296;48.084;16.352;2023-06-10T06:59:14;23.95;;;16.92;;
18340;SDS011;9296;48.084;16.352;2023-06-10T07:01:42;24.70;;;16.92;;
18340;SDS011;9296;48.084;16.352;2023-06-10T07:04:09;20.02;;;16.05;;
18340;SDS011;9296;48.084;16.352;2023-06-10T07:06:37;23.52;;;16.48;;
18340;SDS011;9296;48.084;16.352;2023-06-10T07:09:10;19.50;;;15.82;;
18340;SDS011;9296;48.084;16.352;2023-06-10T07:11:39;23.67;;;17.17;;
18340;SDS011;9296;48.084;16.352;2023-06-10T07:14:06;23.52;;;17.00;;
18340;SDS011;9296;48.084;16.352;2023-06-10T07:19:37;24.63;;;17.92;;
18340;SDS011;9296;48.084;16.352;2023-06-10T07:22:04;26.98;;;18.23;;
18340;SDS011;9296;48.084;16.352;2023-06-10T07:24:31;23.50;;;17.85;;
18340;SDS011;9296;48.084;16.352;2023-06-10T07:27:00;24.55;;;17.15;;
18340;SDS011;9296;48.084;16.352;2023-06-10T07:29:27;27.08;;;18.15;;
18340;SDS011;9296;48.084;16.352;2023-06-10T07:34:58;26.80;;;18.58;;
18340;SDS011;9296;48.084;16.352;2023-06-10T07:37:25;25.55;;;18.52;;
18340;SDS011;9296;48.084;16.352;2023-06-10T07:39:52;25.52;;;17.42;;
18340;SDS011;9296;48.084;16.352;2023-06-10T07:45:14;23.75;;;17.90;;
18340;SDS011;9296;48.084;16.352;2023-06-10T07:47:43;27.27;;;18.13;;
18340;SDS011;9296;48.084;16.352;2023-06-10T07:50:10;23.95;;;17.83;;
18340;SDS011;9296;48.084;16.352;2023-06-10T07:52:37;26.30;;;18.08;;
18340;SDS011;9296;48.084;16.352;2023-06-10T07:55:04;24.42;;;17.70;;
18340;SDS011;9296;48.084;16.352;2023-06-10T07:57:32;22.88;;;17.40;;
18340;SDS011;9296;48.084;16.352;2023-06-10T08:00:01;23.48;;;17.67;;
18340;SDS011;9296;48.084;16.352;2023-06-10T08:02:30;22.70;;;17.15;;
18340;SDS011;9296;48.084;16.352;2023-06-10T08:04:58;22.70;;;17.13;;
18340;SDS011;9296;48.084;16.352;2023-06-10T08:07:25;23.38;;;17.10;;
18340;SDS011;9296;48.084;16.352;2023-06-10T08:09:52;21.67;;;16.33;;
18340;SDS011;9296;48.084;16.352;2023-06-10T08:12:20;21.45;;;16.30;;
18340;SDS011;9296;48.084;16.352;2023-06-10T08:14:47;22.42;;;17.23;;
18340;SDS011;9296;48.084;16.352;2023-06-10T08:20:19;20.80;;;15.85;;
18340;SDS011;9296;48.084;16.352;2023-06-10T08:22:46;22.10;;;16.15;;
18340;SDS011;9296;48.084;16.352;2023-06-10T08:25:13;20.45;;;15.50;;
18340;SDS011;9296;48.084;16.352;2023-06-10T08:27:40;20.92;;;16.00;;
18340;SDS011;9296;48.084;16.352;2023-06-10T08:30:08;19.10;;;16.00;;
18340;SDS011;9296;48.084;16.352;2023-06-10T08:32:35;22.80;;;17.02;;
18340;SDS011;9296;48.084;16.352;2023-06-10T08:35:03;20.38;;;16.77;;
18340;SDS011;9296;48.084;16.352;2023-06-10T08:37:32;20.13;;;15.82;;
18340;SDS011;9296;48.084;16.352;2023-06-10T08:39:59;22.33;;;16.23;;
18340;SDS011;9296;48.084;16.352;2023-06-10T08:42:28;19.90;;;15.68;;
18340;SDS011;9296;48.084;16.352;2023-06-10T08:44:55;19.02;;;15.55;;
18340;SDS011;9296;48.084;16.352;2023-06-10T08:47:24;18.92;;;15.80;;
18340;SDS011;9296;48.084;16.352;2023-06-10T08:49:52;18.83;;;15.80;;
18340;SDS011;9296;48.084;16.352;2023-06-10T08:52:21;19.45;;;15.20;;
18340;SDS011;9296;48.084;16.352;2023-06-10T08:54:52;19.15;;;15.25;;
18340;SDS011;9296;48.084;16.352;2023-06-10T08:57:19;23.30;;;16.58;;
18340;SDS011;9296;48.084;16.352;2023-06-10T08:59:47;19.75;;;16.38;;
18340;SDS011;9296;48.084;16.352;2023-06-10T09:02:15;18.92;;;15.43;;
18340;SDS011;9296;48.084;16.352;2023-06-10T09:04:44;18.75;;;14.95;;
18340;SDS011;9296;48.084;16.352;2023-06-10T09:07:13;19.77;;;14.95;;
18340;SDS011;9296;48.084;16.352;2023-06-10T09:09:41;20.88;;;16.27;;
18340;SDS011;9296;48.084;16.352;2023-06-10T09:12:10;19.17;;;15.05;;
18340;SDS011;9296;48.084;16.352;2023-06-10T09:14:37;18.10;;;14.35;;
18340;SDS011;9296;48.084;16.352;2023-06-10T09:20:08;20.13;;;15.40;;
18340;SDS011;9296;48.084;16.352;2023-06-10T09:22:36;18.45;;;15.05;;
18340;SDS011;9296;48.084;16.352;2023-06-10T09:25:03;20.65;;;15.20;;
18340;SDS011;9296;48.084;16.352;2023-06-10T09:27:33;21.08;;;15.95;;
18340;SDS011;9296;48.084;16.352;2023-06-10T09:30:11;22.40;;;16.42;;
18340;SDS011;9296;48.084;16.352;2023-06-10T09:32:50;20.35;;;16.40;;
18340;SDS011;9296;48.084;16.352;2023-06-10T09:35:18;21.83;;;16.40;;
18340;SDS011;9296;48.084;16.352;2023-06-10T09:37:45;19.58;;;16.05;;
18340;SDS011;9296;48.084;16.352;2023-06-10T09:40:12;21.20;;;16.05;;
18340;SDS011;9296;48.084;16.352;2023-06-10T09:42:41;21.00;;;15.80;;
18340;SDS011;9296;48.084;16.352;2023-06-10T09:45:08;19.33;;;15.50;;
18340;SDS011;9296;48.084;16.352;2023-06-10T09:47:36;19.05;;;14.63;;
18340;SDS011;9296;48.084;16.352;2023-06-10T09:50:03;17.08;;;14.15;;
18340;SDS011;9296;48.084;16.352;2023-06-10T09:52:30;18.60;;;14.70;;
18340;SDS011;9296;48.084;16.352;2023-06-10T09:55:01;20.45;;;14.77;;
18340;SDS011;9296;48.084;16.352;2023-06-10T09:57:30;16.38;;;14.13;;
18340;SDS011;9296;48.084;16.352;2023-06-10T10:00:00;17.00;;;13.13;;
18340;SDS011;9296;48.084;16.352;2023-06-10T10:05:34;15.55;;;13.23;;
18340;SDS011;9296;48.084;16.352;2023-06-10T10:08:01;14.00;;;11.98;;
18340;SDS011;9296;48.084;16.352;2023-06-10T10:10:28;13.95;;;12.45;;
18340;SDS011;9296;48.084;16.352;2023-06-10T10:12:56;15.43;;;12.30;;
18340;SDS011;9296;48.084;16.352;2023-06-10T10:15:25;12.65;;;11.30;;
18340;SDS011;9296;48.084;16.352;2023-06-10T10:17:58;12.68;;;11.38;;
18340;SDS011;9296;48.084;16.352;2023-06-10T10:20:29;13.82;;;11.65;;
18340;SDS011;9296;48.084;16.352;2023-06-10T10:22:56;12.88;;;11.50;;
18340;SDS011;9296;48.084;16.352;2023-06-10T10:25:24;13.00;;;11.63;;
18340;SDS011;9296;48.084;16.352;2023-06-10T10:27:55;12.95;;;11.23;;
18340;SDS011;9296;48.084;16.352;2023-06-10T10:30:25;12.88;;;10.85;;
18340;SDS011;9296;48.084;16.352;2023-06-10T10:33:12;11.45;;;10.25;;
18340;SDS011;9296;48.084;16.352;2023-06-10T10:35:39;12.07;;;10.88;;
18340;SDS011;9296;48.084;16.352;2023-06-10T10:38:08;11.55;;;10.35;;
18340;SDS011;9296;48.084;16.352;2023-06-10T10:40:36;10.68;;;9.68;;
18340;SDS011;9296;48.084;16.352;2023-06-10T10:43:03;11.85;;;10.43;;
18340;SDS011;9296;48.084;16.352;2023-06-10T10:45:33;11.98;;;10.68;;
18340;SDS011;9296;48.084;16.352;2023-06-10T10:48:04;13.60;;;10.38;;
18340;SDS011;9296;48.084;16.352;2023-06-10T10:50:33;11.20;;;10.10;;
18340;SDS011;9296;48.084;16.352;2023-06-10T10:53:00;11.70;;;10.50;;
18340;SDS011;9296;48.084;16.352;2023-06-10T10:55:28;10.45;;;9.45;;
18340;SDS011;9296;48.084;16.352;2023-06-10T10:57:56;10.68;;;9.50;;
18340;SDS011;9296;48.084;16.352;2023-06-10T11:00:27;10.85;;;9.70;;
18340;SDS011;9296;48.084;16.352;2023-06-10T11:05:59;10.52;;;9.43;;
18340;SDS011;9296;48.084;16.352;2023-06-10T11:08:46;12.02;;;10.82;;
18340;SDS011;9296;48.084;16.352;2023-06-10T11:11:17;15.02;;;12.85;;
18340;SDS011;9296;48.084;16.352;2023-06-10T11:13:57;11.02;;;9.95;;
18340;SDS011;9296;48.084;16.352;2023-06-10T11:16:27;10.70;;;9.60;;
18340;SDS011;9296;48.084;16.352;2023-06-10T11:18:55;10.35;;;9.35;;
18340;SDS011;9296;48.084;16.352;2023-06-10T11:21:24;10.77;;;9.52;;
18340;SDS011;9296;48.084;16.352;2023-06-10T11:23:51;10.15;;;9.15;;
18340;SDS011;9296;48.084;16.352;2023-06-10T11:26:20;10.73;;;9.60;;
18340;SDS011;9296;48.084;16.352;2023-06-10T11:29:06;10.20;;;9.20;;
18340;SDS011;9296;48.084;16.352;2023-06-10T11:31:41;11.10;;;10.05;;
18340;SDS011;9296;48.084;16.352;2023-06-10T11:34:08;11.32;;;10.05;;
18340;SDS011;9296;48.084;16.352;2023-06-10T11:36:37;10.70;;;9.35;;
18340;SDS011;9296;48.084;16.352;2023-06-10T11:39:07;10.15;;;9.15;;
18340;SDS011;9296;48.084;16.352;2023-06-10T11:41:35;10.20;;;9.20;;
18340;SDS011;9296;48.084;16.352;2023-06-10T11:44:03;10.88;;;9.73;;
18340;SDS011;9296;48.084;16.352;2023-06-10T11:52:39;10.52;;;9.30;;
18340;SDS011;9296;48.084;16.352;2023-06-10T11:55:07;10.57;;;9.48;;
18340;SDS011;9296;48.084;16.352;2023-06-10T11:57:34;10.38;;;9.27;;
18340;SDS011;9296;48.084;16.352;2023-06-10T12:00:03;11.50;;;9.15;;
18340;SDS011;9296;48.084;16.352;2023-06-10T12:05:17;9.82;;;8.82;;
18340;SDS011;9296;48.084;16.352;2023-06-10T12:07:46;9.73;;;8.82;;
18340;SDS011;9296;48.084;16.352;2023-06-10T12:10:14;11.00;;;8.98;;
18340;SDS011;9296;48.084;16.352;2023-06-10T12:12:42;10.15;;;8.82;;
18340;SDS011;9296;48.084;16.352;2023-06-10T12:15:22;10.13;;;9.13;;
18340;SDS011;9296;48.084;16.352;2023-06-10T12:20:53;9.70;;;8.75;;
18340;SDS011;9296;48.084;16.352;2023-06-10T12:23:22;9.95;;;8.95;;
18340;SDS011;9296;48.084;16.352;2023-06-10T12:25:49;10.50;;;8.90;;
18340;SDS011;9296;48.084;16.352;2023-06-10T12:28:20;9.95;;;8.85;;
18340;SDS011;9296;48.084;16.352;2023-06-10T12:30:47;10.45;;;9.45;;
18340;SDS011;9296;48.084;16.352;2023-06-10T12:36:18;10.27;;;9.18;;
18340;SDS011;9296;48.084;16.352;2023-06-10T12:38:47;9.93;;;8.93;;
18340;SDS011;9296;48.084;16.352;2023-06-10T12:41:17;10.20;;;9.07;;
18340;SDS011;9296;48.084;16.352;2023-06-10T12:43:45;9.70;;;8.50;;
18340;SDS011;9296;48.084;16.352;2023-06-10T12:46:13;10.48;;;9.48;;
18340;SDS011;9296;48.084;16.352;2023-06-10T12:48:49;9.80;;;8.80;;
18340;SDS011;9296;48.084;16.352;2023-06-10T12:51:19;10.50;;;9.43;;
18340;SDS011;9296;48.084;16.352;2023-06-10T12:53:47;10.57;;;9.38;;
18340;SDS011;9296;48.084;16.352;2023-06-10T12:56:15;10.75;;;9.65;;
18340;SDS011;9296;48.084;16.352;2023-06-10T12:58:42;10.00;;;8.45;;
18340;SDS011;9296;48.084;16.352;2023-06-10T13:01:09;9.38;;;8.48;;
18340;SDS011;9296;48.084;16.352;2023-06-10T13:06:42;9.65;;;8.65;;
18340;SDS011;9296;48.084;16.352;2023-06-10T13:09:13;11.80;;;8.30;;
18340;SDS011;9296;48.084;16.352;2023-06-10T13:11:40;9.93;;;8.82;;
18340;SDS011;9296;48.084;16.352;2023-06-10T13:14:08;9.77;;;8.77;;
18340;SDS011;9296;48.084;16.352;2023-06-10T13:22:42;9.75;;;8.75;;
18340;SDS011;9296;48.084;16.352;2023-06-10T13:25:11;13.32;;;9.98;;
18340;SDS011;9296;48.084;16.352;2023-06-10T13:27:39;12.05;;;10.20;;
18340;SDS011;9296;48.084;16.352;2023-06-10T13:30:07;12.18;;;10.88;;
18340;SDS011;9296;48.084;16.352;2023-06-10T13:35:38;16.50;;;11.95;;
18340;SDS011;9296;48.084;16.352;2023-06-10T13:38:06;13.27;;;11.85;;
18340;SDS011;9296;48.084;16.352;2023-06-10T13:40:35;12.98;;;11.63;;
18340;SDS011;9296;48.084;16.352;2023-06-10T13:43:02;15.77;;;12.10;;
18340;SDS011;9296;48.084;16.352;2023-06-10T13:45:29;12.68;;;11.35;;
18340;SDS011;9296;48.084;16.352;2023-06-10T13:47:56;11.95;;;10.55;;
18340;SDS011;9296;48.084;16.352;2023-06-10T13:50:23;11.23;;;9.80;;
18340;SDS011;9296;48.084;16.352;2023-06-10T13:52:51;10.70;;;9.55;;
18340;SDS011;9296;48.084;16.352;2023-06-10T13:55:18;10.40;;;9.23;;
18340;SDS011;9296;48.084;16.352;2023-06-10T13:57:47;10.20;;;8.73;;
18340;SDS011;9296;48.084;16.352;2023-06-10T14:00:14;9.73;;;8.70;;
18340;SDS011;9296;48.084;16.352;2023-06-10T14:03:00;9.63;;;8.45;;
18340;SDS011;9296;48.084;16.352;2023-06-10T14:05:28;9.93;;;8.38;;
18340;SDS011;9296;48.084;16.352;2023-06-10T14:07:55;12.20;;;8.45;;
18340;SDS011;9296;48.084;16.352;2023-06-10T14:10:22;9.52;;;8.55;;
18340;SDS011;9296;48.084;16.352;2023-06-10T14:12:51;10.82;;;8.60;;
18340;SDS011;9296;48.084;16.352;2023-06-10T14:15:18;9.23;;;8.32;;
18340;SDS011;9296;48.084;16.352;2023-06-10T14:21:04;10.50;;;9.40;;
18340;SDS011;9296;48.084;16.352;2023-06-10T14:23:31;11.45;;;9.90;;
18340;SDS011;9296;48.084;16.352;2023-06-10T14:25:59;11.10;;;9.98;;
18340;SDS011;9296;48.084;16.352;2023-06-10T14:28:28;10.73;;;9.63;;
18340;SDS011;9296;48.084;16.352;2023-06-10T14:30:55;10.77;;;9.65;;
18340;SDS011;9296;48.084;16.352;2023-06-10T14:33:41;11.60;;;10.30;;
18340;SDS011;9296;48.084;16.352;2023-06-10T14:36:08;12.10;;;10.80;;
18340;SDS011;9296;48.084;16.352;2023-06-10T14:38:36;12.75;;;10.98;;
18340;SDS011;9296;48.084;16.352;2023-06-10T14:41:03;11.95;;;10.75;;
18340;SDS011;9296;48.084;16.352;2023-06-10T14:43:31;13.82;;;10.73;;
18340;SDS011;9296;48.084;16.352;2023-06-10T14:45:59;13.05;;;11.75;;
18340;SDS011;9296;48.084;16.352;2023-06-10T14:51:29;12.80;;;10.18;;
18340;SDS011;9296;48.084;16.352;2023-06-10T14:53:56;11.68;;;9.75;;
18340;SDS011;9296;48.084;16.352;2023-06-10T14:56:24;11.32;;;9.73;;
18340;SDS011;9296;48.084;16.352;2023-06-10T14:58:53;10.90;;;9.45;;
18340;SDS011;9296;48.084;16.352;2023-06-10T15:01:20;11.55;;;9.77;;
18340;SDS011;9296;48.084;16.352;2023-06-10T15:03:47;11.10;;;9.90;;
18340;SDS011;9296;48.084;16.352;2023-06-10T15:06:14;10.65;;;9.55;;
18340;SDS011;9296;48.084;16.352;2023-06-10T15:08:45;11.30;;;9.48;;
18340;SDS011;9296;48.084;16.352;2023-06-10T15:11:13;10.93;;;9.82;;
18340;SDS011;9296;48.084;16.352;2023-06-10T15:13:40;10.38;;;9.32;;
18340;SDS011;9296;48.084;16.352;2023-06-10T15:16:09;11.40;;;9.30;;
18340;SDS011;9296;48.084;16.352;2023-06-10T15:18:36;11.20;;;9.77;;
18340;SDS011;9296;48.084;16.352;2023-06-10T15:21:03;10.98;;;9.73;;
18340;SDS011;9296;48.084;16.352;2023-06-10T15:23:30;10.63;;;9.43;;
18340;SDS011;9296;48.084;16.352;2023-06-10T15:25:57;10.85;;;9.77;;
18340;SDS011;9296;48.084;16.352;2023-06-10T15:28:25;10.98;;;9.52;;
18340;SDS011;9296;48.084;16.352;2023-06-10T15:30:52;11.82;;;9.90;;
18340;SDS011;9296;48.084;16.352;2023-06-10T15:36:25;10.40;;;9.38;;
18340;SDS011;9296;48.084;16.352;2023-06-10T15:38:53;10.55;;;9.45;;
18340;SDS011;9296;48.084;16.352;2023-06-10T15:41:20;10.60;;;9.50;;
18340;SDS011;9296;48.084;16.352;2023-06-10T15:43:47;11.98;;;10.32;;
18340;SDS011;9296;48.084;16.352;2023-06-10T15:46:14;9.77;;;8.85;;
18340;SDS011;9296;48.084;16.352;2023-06-10T15:51:18;11.25;;;9.93;;
18340;SDS011;9296;48.084;16.352;2023-06-10T15:53:46;6.93;;;6.10;;
18340;SDS011;9296;48.084;16.352;2023-06-10T15:56:13;5.53;;;5.03;;
18340;SDS011;9296;48.084;16.352;2023-06-10T15:58:41;5.40;;;4.65;;
18340;SDS011;9296;48.084;16.352;2023-06-10T16:01:08;8.75;;;7.15;;
18340;SDS011;9296;48.084;16.352;2023-06-10T16:03:55;8.52;;;7.15;;
18340;SDS011;9296;48.084;16.352;2023-06-10T16:06:26;8.93;;;7.32;;
18340;SDS011;9296;48.084;16.352;2023-06-10T16:09:08;8.90;;;7.38;;
18340;SDS011;9296;48.084;16.352;2023-06-10T16:11:36;11.00;;;8.15;;
18340;SDS011;9296;48.084;16.352;2023-06-10T16:14:04;11.65;;;9.00;;
18340;SDS011;9296;48.084;16.352;2023-06-10T16:16:31;10.98;;;8.60;;
18340;SDS011;9296;48.084;16.352;2023-06-10T16:22:02;13.93;;;8.65;;
18340;SDS011;9296;48.084;16.352;2023-06-10T16:24:31;11.85;;;9.20;;
18340;SDS011;9296;48.084;16.352;2023-06-10T16:26:59;12.95;;;9.52;;
18340;SDS011;9296;48.084;16.352;2023-06-10T16:29:26;12.00;;;8.85;;
18340;SDS011;9296;48.084;16.352;2023-06-10T16:31:54;12.35;;;9.15;;
18340;SDS011;9296;48.084;16.352;2023-06-10T16:37:24;11.70;;;9.02;;
18340;SDS011;9296;48.084;16.352;2023-06-10T16:39:53;12.13;;;8.77;;